Time;durP1;ratioP1;P1;durP2;ratioP2;P2;SDS_P1;SDS_P2;PMS_P1;PMS_P2;Temp;Humidity;BMP_temperature;BMP_pressure;BME280_temperature;BME280_humidity;BME280_pressure;Samples;Min_cycle;Max_cycle;Signal;HPM_P1;HPM_P2
2021/08/02 00:00:52;;;;;;;0.30;0.30;;;18.10;74.00;;;;;;5072673;28;20043;-77
2021/08/02 00:03:21;;;;;;;;;;;18.00;74.00;;;;;;5058855;28;20021;-77
2021/08/02 00:05:52;;;;;;;0.20;0.20;;;18.00;74.30;;;;;;5058640;28;19908;-77
2021/08/02 00:08:23;;;;;;;0.20;0.20;;;17.90;74.20;;;;;;5058509;28;20040;-77
2021/08/02 00:10:53;;;;;;;0.20;0.20;;;17.80;74.90;;;;;;5076636;28;20676;-77
2021/08/02 00:13:34;;;;;;;0.20;0.20;;;17.90;74.00;;;;;;5078513;28;20052;-77
2021/08/02 00:16:04;;;;;;;0.20;0.20;;;18.00;74.20;;;;;;5078659;28;20052;-77
2021/08/02 00:18:31;;;;;;;0.23;0.20;;;18.00;73.80;;;;;;5065028;28;20037;-77
2021/08/02 00:21:00;;;;;;;0.22;0.20;;;18.00;74.20;;;;;;5058363;28;20367;-77
2021/08/02 00:23:26;;;;;;;0.25;0.20;;;17.90;74.60;;;;;;5057976;28;20134;-77
2021/08/02 00:26:02;;;;;;;0.20;0.20;;;17.80;74.40;;;;;;5058182;28;20033;-77
2021/08/02 00:28:29;;;;;;;0.25;0.20;;;17.80;74.20;;;;;;5061847;28;20082;-77
2021/08/02 00:30:55;;;;;;;0.20;0.20;;;17.80;74.90;;;;;;5069887;28;20036;-77
2021/08/02 00:33:21;;;;;;;0.28;0.20;;;17.90;74.60;;;;;;5059626;28;20079;-77
2021/08/02 00:36:14;;;;;;;0.20;0.20;;;17.90;74.80;;;;;;5057915;28;20017;-77
2021/08/02 00:38:49;;;;;;;0.30;0.20;;;17.80;75.10;;;;;;5057785;28;20067;-77
2021/08/02 00:41:18;;;;;;;0.20;0.20;;;17.70;75.10;;;;;;5067595;28;20585;-77
2021/08/02 00:44:25;;;;;;;0.20;0.20;;;17.80;74.50;;;;;;5076425;28;20510;-77
2021/08/02 00:46:58;;;;;;;0.20;0.20;;;17.90;74.90;;;;;;5068999;28;20519;-77
2021/08/02 00:49:26;;;;;;;0.10;0.10;;;17.90;74.60;;;;;;5056603;28;20553;-77
2021/08/02 00:51:55;;;;;;;0.20;0.20;;;17.90;74.80;;;;;;5057245;28;20499;-77
2021/08/02 00:54:24;;;;;;;0.20;0.20;;;17.80;75.00;;;;;;5057122;28;20021;-77
2021/08/02 00:56:56;;;;;;;0.20;0.20;;;17.90;75.60;;;;;;5055795;28;20538;-77
2021/08/02 00:59:24;;;;;;;0.20;0.20;;;17.90;75.70;;;;;;5057080;28;20475;-77
2021/08/02 01:01:59;;;;;;;0.20;0.20;;;17.90;74.90;;;;;;5057302;28;20104;-77
2021/08/02 01:04:26;;;;;;;0.20;0.20;;;18.00;74.40;;;;;;5057471;28;20021;-77
2021/08/02 01:06:53;;;;;;;0.32;0.30;;;18.10;74.50;;;;;;5057557;28;20060;-77
2021/08/02 01:09:20;;;;;;;0.20;0.20;;;18.00;74.80;;;;;;5057375;28;20510;-77
2021/08/02 01:11:48;;;;;;;0.20;0.20;;;18.00;75.10;;;;;;5057047;28;20029;-77
2021/08/02 01:14:14;;;;;;;0.20;0.20;;;18.00;75.70;;;;;;5057244;28;20483;-77
2021/08/02 01:16:41;;;;;;;0.10;0.10;;;18.00;75.30;;;;;;5072463;28;20021;-78
2021/08/02 01:19:10;;;;;;;0.30;0.20;;;18.00;75.50;;;;;;5057010;28;20017;-77
2021/08/02 01:21:40;;;;;;;0.20;0.20;;;18.00;75.70;;;;;;5057402;28;20032;-77
2021/08/02 01:24:10;;;;;;;0.25;0.20;;;18.00;75.50;;;;;;5055693;28;20033;-77
2021/08/02 01:27:05;;;;;;;0.30;0.22;;;18.00;75.40;;;;;;5056801;28;20029;-77
2021/08/02 01:30:08;;;;;;;0.30;0.20;;;18.00;75.60;;;;;;5047762;28;20037;-77
2021/08/02 01:32:34;;;;;;;0.22;0.20;;;18.10;75.30;;;;;;5056907;28;20102;-77
2021/08/02 01:34:59;;;;;;;0.20;0.20;;;18.10;75.00;;;;;;5056509;28;20038;-77
2021/08/02 01:37:25;;;;;;;0.32;0.20;;;18.10;75.50;;;;;;5056756;28;20025;-77
2021/08/02 01:39:53;;;;;;;0.38;0.30;;;18.10;75.60;;;;;;5056752;28;20028;-77
2021/08/02 01:42:19;;;;;;;0.20;0.20;;;18.10;75.80;;;;;;5056466;28;20076;-77
2021/08/02 01:44:44;;;;;;;0.20;0.20;;;18.10;75.20;;;;;;5056552;28;20052;-77
2021/08/02 01:47:44;;;;;;;0.25;0.20;;;18.10;75.60;;;;;;5056485;28;20033;-77
2021/08/02 01:50:47;;;;;;;0.20;0.20;;;18.20;75.70;;;;;;5056535;28;20417;-77
2021/08/02 01:53:24;;;;;;;0.28;0.20;;;18.20;76.10;;;;;;5056447;28;20033;-78
2021/08/02 01:56:18;;;;;;;0.28;0.20;;;18.20;75.80;;;;;;5056424;28;20021;-77
2021/08/02 01:59:00;;;;;;;0.38;0.20;;;18.10;76.10;;;;;;5033966;28;20109;-77
2021/08/02 02:01:26;;;;;;;0.40;0.30;;;18.20;76.20;;;;;;5055865;28;20078;-77
2021/08/02 02:03:54;;;;;;;0.30;0.30;;;18.10;77.20;;;;;;5056078;28;20029;-77
2021/08/02 02:06:29;;;;;;;0.20;0.20;;;18.20;76.90;;;;;;5056080;28;20033;-77
2021/08/02 02:08:58;;;;;;;0.30;0.20;;;18.10;76.80;;;;;;5056199;28;20043;-77
2021/08/02 02:11:25;;;;;;;0.70;0.30;;;18.20;77.50;;;;;;5055904;28;20518;-77
2021/08/02 02:13:55;;;;;;;0.30;0.22;;;18.20;77.40;;;;;;5056052;28;20037;-77
2021/08/02 02:16:21;;;;;;;0.30;0.20;;;18.20;76.80;;;;;;5056166;28;20032;-77
2021/08/02 02:18:50;;;;;;;0.30;0.22;;;18.30;76.80;;;;;;5055716;28;20035;-77
2021/08/02 02:21:19;;;;;;;0.20;0.20;;;18.30;76.70;;;;;;5055858;28;20021;-77
2021/08/02 02:23:46;;;;;;;0.28;0.20;;;18.20;77.60;;;;;;5055741;28;20029;-77
2021/08/02 02:26:12;;;;;;;0.20;0.20;;;18.20;77.60;;;;;;5075573;28;20021;-77
2021/08/02 02:28:39;;;;;;;0.20;0.20;;;18.10;78.30;;;;;;5076441;28;20017;-77
2021/08/02 02:31:15;;;;;;;0.30;0.25;;;18.20;77.40;;;;;;5075932;28;20032;-77
2021/08/02 02:33:42;;;;;;;0.38;0.30;;;18.20;77.20;;;;;;5072020;28;20032;-78
2021/08/02 02:36:09;;;;;;;0.20;0.20;;;18.20;77.50;;;;;;5055659;28;20024;-77
2021/08/02 02:38:35;;;;;;;0.38;0.20;;;18.20;77.40;;;;;;5055588;28;20091;-77
2021/08/02 02:41:01;;;;;;;0.20;0.20;;;18.20;77.60;;;;;;5064772;28;20422;-77
2021/08/02 02:43:28;;;;;;;0.30;0.20;;;18.10;78.30;;;;;;5073239;28;20511;-77
2021/08/02 02:45:54;;;;;;;0.30;0.20;;;18.00;78.50;;;;;;5075690;28;20391;-77
2021/08/02 02:48:20;;;;;;;0.20;0.15;;;18.00;78.40;;;;;;5075458;28;20024;-77
2021/08/02 02:50:50;;;;;;;0.20;0.20;;;17.90;78.20;;;;;;5075474;28;20031;-77
2021/08/02 02:53:17;;;;;;;0.32;0.30;;;18.00;78.00;;;;;;5067053;28;20445;-77
2021/08/02 02:55:45;;;;;;;0.20;0.20;;;17.90;78.00;;;;;;5055622;28;20036;-77
2021/08/02 02:58:11;;;;;;;0.55;0.30;;;17.90;78.40;;;;;;5055381;28;20037;-77
2021/08/02 03:00:38;;;;;;;0.20;0.20;;;17.90;78.10;;;;;;5055682;28;20079;-78
2021/08/02 03:03:07;;;;;;;0.30;0.28;;;18.10;77.80;;;;;;5061743;28;20028;-77
2021/08/02 03:05:35;;;;;;;0.40;0.20;;;18.10;77.00;;;;;;5075676;28;20021;-77
2021/08/02 03:08:09;;;;;;;0.40;0.20;;;18.10;77.20;;;;;;5075359;28;20028;-77
2021/08/02 03:10:35;;;;;;;0.30;0.20;;;18.20;76.60;;;;;;5060699;28;20469;-77
2021/08/02 03:13:01;;;;;;;0.30;0.20;;;18.20;77.20;;;;;;5058168;28;20033;-77
2021/08/02 03:15:27;;;;;;;0.20;0.20;;;18.20;76.80;;;;;;5059385;28;20040;-77
2021/08/02 03:17:52;;;;;;;0.20;0.20;;;18.20;76.70;;;;;;5062447;28;20442;-77
2021/08/02 03:20:18;;;;;;;0.30;0.20;;;18.30;76.00;;;;;;5079530;28;20029;-77
2021/08/02 03:22:52;;;;;;;0.28;0.20;;;18.20;76.80;;;;;;5079559;28;20360;-77
2021/08/02 03:25:33;;;;;;;0.38;0.22;;;18.30;76.90;;;;;;5079464;28;20024;-77
2021/08/02 03:28:14;;;;;;;0.40;0.20;;;18.10;77.90;;;;;;5070809;28;20609;-77
2021/08/02 03:30:43;;;;;;;0.30;0.20;;;18.10;77.70;;;;;;5059158;28;20083;-77
2021/08/02 03:33:15;;;;;;;0.20;0.20;;;18.10;77.70;;;;;;5059050;28;20051;-77
2021/08/02 03:35:44;;;;;;;0.20;0.20;;;18.10;77.30;;;;;;5077869;28;20440;-77
2021/08/02 03:38:13;;;;;;;0.28;0.20;;;18.10;77.90;;;;;;5079036;28;20032;-77
2021/08/02 03:40:39;;;;;;;0.20;0.20;;;18.10;77.70;;;;;;5078969;28;20130;-77
2021/08/02 03:43:05;;;;;;;0.20;0.20;;;18.20;77.20;;;;;;5071390;28;20040;-77
2021/08/02 03:45:31;;;;;;;0.32;0.20;;;18.20;77.50;;;;;;5058908;28;20049;-77
2021/08/02 03:47:57;;;;;;;0.30;0.22;;;18.20;77.20;;;;;;5058766;28;20064;-77
2021/08/02 03:50:23;;;;;;;0.20;0.20;;;18.20;77.60;;;;;;5058685;28;20029;-77
2021/08/02 03:52:49;;;;;;;0.20;0.20;;;18.10;77.60;;;;;;5076363;28;20032;-77
2021/08/02 03:55:26;;;;;;;0.20;0.10;;;17.90;78.60;;;;;;5077642;28;20119;-77
2021/08/02 03:57:51;;;;;;;0.20;0.20;;;17.80;78.70;;;;;;5078719;28;20050;-77
2021/08/02 04:00:21;;;;;;;0.10;0.10;;;17.80;78.60;;;;;;5078649;28;20023;-77
2021/08/02 04:02:49;;;;;;;0.20;0.20;;;17.80;78.40;;;;;;5072418;28;20059;-77
2021/08/02 04:05:15;;;;;;;0.30;0.20;;;17.70;78.50;;;;;;5058828;28;20048;-77
2021/08/02 04:07:41;;;;;;;0.30;0.30;;;17.80;77.70;;;;;;5058539;28;20025;-77
2021/08/02 04:10:08;;;;;;;0.32;0.20;;;17.80;77.60;;;;;;5058332;28;20021;-77
2021/08/02 04:12:34;;;;;;;0.20;0.20;;;17.80;77.90;;;;;;5058422;28;20028;-77
2021/08/02 04:15:00;;;;;;;0.20;0.20;;;17.80;77.60;;;;;;5058223;28;20025;-77
2021/08/02 04:17:25;;;;;;;0.30;0.20;;;17.80;77.40;;;;;;5058612;28;20029;-77
2021/08/02 04:19:51;;;;;;;0.20;0.20;;;17.80;77.50;;;;;;5058287;28;20116;-77
2021/08/02 04:22:17;;;;;;;0.20;0.20;;;17.80;77.90;;;;;;5058583;28;20372;-78
2021/08/02 04:24:42;;;;;;;0.20;0.20;;;17.90;77.60;;;;;;5057855;28;20021;-77
2021/08/02 04:27:08;;;;;;;0.40;0.30;;;17.80;77.70;;;;;;5058087;28;20028;-78
2021/08/02 04:29:34;;;;;;;0.43;0.28;;;17.80;78.00;;;;;;5058211;28;20021;-77
2021/08/02 04:32:15;;;;;;;0.32;0.30;;;17.80;77.90;;;;;;5073565;28;20056;-77
2021/08/02 04:34:40;;;;;;;0.20;0.20;;;17.80;77.90;;;;;;5057907;28;20459;-77
2021/08/02 04:37:06;;;;;;;0.20;0.20;;;17.80;77.30;;;;;;5057991;28;20029;-78
2021/08/02 04:39:32;;;;;;;0.30;0.25;;;17.80;77.70;;;;;;5058042;28;20021;-77
2021/08/02 04:41:58;;;;;;;0.30;0.20;;;17.80;77.50;;;;;;5074720;28;20043;-77
2021/08/02 04:44:24;;;;;;;0.30;0.20;;;17.80;77.20;;;;;;5076597;28;20017;-77
2021/08/02 04:46:49;;;;;;;0.20;0.20;;;17.80;77.10;;;;;;5077694;28;20041;-77
2021/08/02 04:49:15;;;;;;;0.30;0.20;;;17.80;77.00;;;;;;5077726;28;20048;-77
2021/08/02 04:51:41;;;;;;;0.20;0.20;;;17.80;76.70;;;;;;5077774;28;20031;-78
2021/08/02 04:54:07;;;;;;;0.20;0.20;;;17.80;77.60;;;;;;5068807;28;20530;-77
2021/08/02 04:56:33;;;;;;;0.20;0.20;;;17.80;77.50;;;;;;5057759;28;20061;-77
2021/08/02 04:58:59;;;;;;;0.10;0.10;;;17.80;77.40;;;;;;5057609;28;20062;-77
2021/08/02 05:01:24;;;;;;;0.30;0.20;;;17.80;77.40;;;;;;5057390;28;20069;-77
2021/08/02 05:03:50;;;;;;;0.20;0.20;;;17.80;77.20;;;;;;5072568;28;20032;-77
2021/08/02 05:06:16;;;;;;;0.30;0.28;;;18.00;76.60;;;;;;5057517;28;20025;-77
2021/08/02 05:08:41;;;;;;;0.28;0.20;;;18.00;76.50;;;;;;5075437;28;20473;-77
2021/08/02 05:11:07;;;;;;;0.20;0.20;;;18.00;76.90;;;;;;5076146;28;20021;-77
2021/08/02 05:13:34;;;;;;;0.30;0.30;;;18.00;77.00;;;;;;5077360;28;20046;-78
2021/08/02 05:15:59;;;;;;;0.20;0.20;;;17.90;76.80;;;;;;5057324;28;20513;-77
2021/08/02 05:18:25;;;;;;;0.32;0.20;;;17.90;76.40;;;;;;5056978;28;20029;-77
2021/08/02 05:20:51;;;;;;;0.20;0.20;;;18.00;76.10;;;;;;5057245;28;20040;-77
2021/08/02 05:23:16;;;;;;;0.50;0.30;;;18.00;76.40;;;;;;5065694;28;20064;-77
2021/08/02 05:25:42;;;;;;;0.30;0.30;;;18.00;76.20;;;;;;5077097;28;20372;-77
2021/08/02 05:28:08;;;;;;;0.40;0.30;;;18.00;76.10;;;;;;5077523;28;20439;-77
2021/08/02 05:30:33;;;;;;;0.40;0.30;;;18.00;76.70;;;;;;5073595;28;20112;-78
2021/08/02 05:32:59;;;;;;;0.20;0.20;;;18.00;77.10;;;;;;5056818;28;20029;-77
2021/08/02 05:35:25;;;;;;;0.30;0.28;;;18.10;76.70;;;;;;5056342;28;20025;-77
2021/08/02 05:37:53;;;;;;;0.30;0.20;;;18.10;76.90;;;;;;5056825;28;20041;-77
2021/08/02 05:40:19;;;;;;;0.30;0.20;;;18.00;77.00;;;;;;5060277;28;20017;-77
2021/08/02 05:42:44;;;;;;;0.30;0.20;;;18.10;76.80;;;;;;5076570;28;20047;-77
2021/08/02 05:45:10;;;;;;;0.40;0.20;;;18.10;77.00;;;;;;5076684;28;20031;-77
2021/08/02 05:47:38;;;;;;;0.30;0.20;;;18.10;76.90;;;;;;5076585;28;20041;-77
2021/08/02 05:50:04;;;;;;;0.38;0.20;;;18.20;76.60;;;;;;5065375;28;20021;-77
2021/08/02 05:52:30;;;;;;;0.40;0.20;;;18.30;76.10;;;;;;5071819;28;20032;-77
2021/08/02 05:54:55;;;;;;;0.20;0.20;;;18.30;75.70;;;;;;5056573;28;20499;-77
2021/08/02 05:57:22;;;;;;;0.32;0.30;;;18.30;75.50;;;;;;5054758;28;20757;-77
2021/08/02 05:59:48;;;;;;;0.30;0.20;;;18.40;75.10;;;;;;5056370;28;20044;-77
2021/08/02 06:02:14;;;;;;;0.20;0.20;;;18.40;74.90;;;;;;5056039;28;20029;-77
2021/08/02 06:04:40;;;;;;;0.32;0.25;;;18.40;75.00;;;;;;5055502;28;20021;-77
2021/08/02 06:07:06;;;;;;;0.20;0.20;;;18.40;74.80;;;;;;5056345;28;20028;-77
2021/08/02 06:09:32;;;;;;;0.20;0.20;;;18.40;74.90;;;;;;5056283;28;20509;-77
2021/08/02 06:11:58;;;;;;;0.20;0.20;;;18.40;75.10;;;;;;5056130;28;20025;-77
2021/08/02 06:14:24;;;;;;;0.43;0.20;;;18.40;76.00;;;;;;5061377;28;20400;-77
2021/08/02 06:16:50;;;;;;;0.25;0.20;;;18.50;75.70;;;;;;5071524;28;20028;-77
2021/08/02 06:19:16;;;;;;;0.20;0.20;;;18.60;76.00;;;;;;5070187;28;20039;-78
2021/08/02 06:21:42;;;;;;;0.30;0.30;;;18.60;76.40;;;;;;5071333;28;20112;-77
2021/08/02 06:24:08;;;;;;;0.50;0.20;;;18.60;76.40;;;;;;5055830;28;20029;-77
2021/08/02 06:26:34;;;;;;;0.50;0.20;;;18.80;76.00;;;;;;5069028;28;20028;-77
2021/08/02 06:29:00;;;;;;;0.40;0.20;;;18.90;75.70;;;;;;5075994;28;20028;-77
2021/08/02 06:31:26;;;;;;;0.35;0.22;;;19.20;74.50;;;;;;5064060;28;20412;-77
2021/08/02 06:33:51;;;;;;;0.20;0.20;;;19.30;74.00;;;;;;5055627;28;20041;-77
2021/08/02 06:36:18;;;;;;;0.50;0.20;;;19.30;74.10;;;;;;5057892;28;20036;-77
2021/08/02 06:38:44;;;;;;;0.28;0.20;;;19.50;73.70;;;;;;5055633;28;20491;-77
2021/08/02 06:41:10;;;;;;;0.20;0.20;;;19.70;73.20;;;;;;5066320;28;20048;-78
2021/08/02 06:43:36;;;;;;;0.20;0.20;;;19.80;72.20;;;;;;5058790;28;20078;-77
2021/08/02 06:46:02;;;;;;;0.20;0.20;;;19.90;71.50;;;;;;5055241;28;20033;-77
2021/08/02 06:48:27;;;;;;;0.10;0.10;;;19.90;71.30;;;;;;5073455;28;20036;-77
2021/08/02 06:50:53;;;;;;;0.30;0.20;;;19.90;71.20;;;;;;5075755;28;20024;-78
2021/08/02 06:53:19;;;;;;;0.22;0.15;;;20.00;70.90;;;;;;5075510;28;20145;-77
2021/08/02 06:55:47;;;;;;;0.22;0.20;;;20.30;70.90;;;;;;5070217;28;20064;-77
2021/08/02 06:58:14;;;;;;;0.38;0.20;;;20.40;69.60;;;;;;5055541;28;20039;-77
2021/08/02 07:00:40;;;;;;;0.32;0.20;;;20.40;70.00;;;;;;5055345;28;20021;-78
2021/08/02 07:03:06;;;;;;;0.40;0.20;;;20.40;69.40;;;;;;5055288;28;20047;-77
2021/08/02 07:05:32;;;;;;;0.20;0.10;;;20.40;68.90;;;;;;5055463;28;20128;-78
2021/08/02 07:07:57;;;;;;;0.20;0.20;;;20.40;69.00;;;;;;5055428;28;20033;-77
2021/08/02 07:10:23;;;;;;;0.20;0.20;;;20.50;69.30;;;;;;5055235;28;20060;-78
2021/08/02 07:12:49;;;;;;;0.40;0.20;;;20.50;68.80;;;;;;5055242;28;20036;-78
2021/08/02 07:15:15;;;;;;;0.32;0.20;;;20.40;69.10;;;;;;5068188;28;20025;-77
2021/08/02 07:17:40;;;;;;;0.20;0.20;;;20.50;69.00;;;;;;5075193;28;20028;-77
2021/08/02 07:20:06;;;;;;;0.30;0.22;;;20.50;67.70;;;;;;5073891;28;20115;-77
2021/08/02 07:22:32;;;;;;;0.30;0.17;;;20.60;68.80;;;;;;5075137;28;20115;-77
2021/08/02 07:24:57;;;;;;;0.25;0.20;;;20.70;68.30;;;;;;5056442;28;20613;-77
2021/08/02 07:27:23;;;;;;;0.20;0.20;;;20.80;68.20;;;;;;5055206;28;20052;-77
2021/08/02 07:29:49;;;;;;;0.40;0.20;;;20.80;68.00;;;;;;5055240;28;20040;-77
2021/08/02 07:32:15;;;;;;;0.20;0.20;;;20.90;67.80;;;;;;5073678;28;20036;-78
2021/08/02 07:34:40;;;;;;;0.25;0.20;;;21.00;67.20;;;;;;5064080;28;20104;-78
2021/08/02 07:37:06;;;;;;;0.30;0.20;;;20.90;67.10;;;;;;5055078;28;20041;-77
2021/08/02 07:39:32;;;;;;;0.30;0.20;;;20.90;67.50;;;;;;5055082;28;20028;-78
2021/08/02 07:41:58;;;;;;;0.30;0.20;;;20.90;67.80;;;;;;5061799;28;20064;-77
2021/08/02 07:44:24;;;;;;;0.20;0.20;;;20.80;68.10;;;;;;5053832;28;20029;-77
2021/08/02 07:46:50;;;;;;;0.22;0.10;;;20.90;68.10;;;;;;5054902;28;20029;-78
2021/08/02 07:49:15;;;;;;;0.20;0.17;;;21.00;67.90;;;;;;5054991;28;20033;-77
2021/08/02 07:51:41;;;;;;;0.38;0.20;;;21.00;67.80;;;;;;5064778;28;20426;-78
2021/08/02 07:54:08;;;;;;;0.93;0.20;;;21.00;67.30;;;;;;5075000;28;20123;-77
2021/08/02 07:56:34;;;;;;;0.10;0.10;;;21.10;66.70;;;;;;5072906;28;20039;-78
2021/08/02 07:59:00;;;;;;;0.25;0.10;;;21.10;67.30;;;;;;5057286;28;20029;-78
2021/08/02 08:01:26;;;;;;;0.32;0.20;;;21.00;67.70;;;;;;5058715;28;20021;-77
2021/08/02 08:03:52;;;;;;;0.20;0.10;;;21.00;68.10;;;;;;5058373;28;20049;-77
2021/08/02 08:06:17;;;;;;;0.10;0.10;;;21.00;68.10;;;;;;5058619;28;20562;-77
2021/08/02 08:08:43;;;;;;;0.20;0.10;;;21.00;67.70;;;;;;5058301;28;20523;-77
2021/08/02 08:11:10;;;;;;;0.30;0.10;;;20.90;67.90;;;;;;5058503;28;20501;-78
2021/08/02 08:13:39;;;;;;;0.10;0.10;;;21.00;67.20;;;;;;5058493;28;20020;-77
2021/08/02 08:16:05;;;;;;;0.20;0.20;;;21.10;67.50;;;;;;5057162;28;20079;-77
2021/08/02 08:18:32;;;;;;;0.20;0.10;;;21.10;67.10;;;;;;5056835;28;20053;-77
2021/08/02 08:20:59;;;;;;;0.17;0.10;;;21.10;67.50;;;;;;5058268;28;20039;-78
2021/08/02 08:23:31;;;;;;;0.40;0.20;;;21.00;67.60;;;;;;5056813;28;20380;-78
2021/08/02 08:25:57;;;;;;;0.30;0.10;;;20.80;68.40;;;;;;5058103;28;20029;-77
2021/08/02 08:28:22;;;;;;;0.32;0.20;;;20.80;68.10;;;;;;5056765;28;20083;-77
2021/08/02 08:30:48;;;;;;;0.40;0.20;;;20.90;67.80;;;;;;5058072;28;20029;-78
2021/08/02 08:33:14;;;;;;;0.43;0.20;;;21.00;67.20;;;;;;5073168;28;20079;-77
2021/08/02 08:35:40;;;;;;;0.20;0.10;;;21.20;67.40;;;;;;5056759;28;20863;-78
2021/08/02 08:38:07;;;;;;;0.10;0.10;;;21.30;67.10;;;;;;5058001;28;20125;-77
2021/08/02 08:40:34;;;;;;;0.15;0.13;;;21.30;67.40;;;;;;5063496;28;20028;-77
2021/08/02 08:42:59;;;;;;;0.15;0.10;;;21.50;66.10;;;;;;5065227;28;20111;-78
2021/08/02 08:45:25;;;;;;;0.28;0.10;;;21.60;65.70;;;;;;5057835;28;20029;-78
2021/08/02 08:47:51;;;;;;;0.10;0.10;;;21.70;65.00;;;;;;5057762;28;20033;-78
2021/08/02 08:50:18;;;;;;;0.32;0.10;;;21.60;64.70;;;;;;5056232;28;20180;-77
2021/08/02 08:52:45;;;;;;;0.17;0.10;;;21.80;64.60;;;;;;5057603;28;20029;-78
2021/08/02 08:55:13;;;;;;;0.10;0.10;;;21.80;64.30;;;;;;5057608;28;20021;-78
2021/08/02 08:57:40;;;;;;;0.13;0.10;;;21.90;64.70;;;;;;5057686;28;20029;-78
2021/08/02 09:00:18;;;;;;;0.20;0.13;;;22.20;64.40;;;;;;5070573;28;20063;-78
2021/08/02 09:02:43;;;;;;;0.20;0.10;;;22.30;64.00;;;;;;5077440;28;20020;-78
2021/08/02 09:05:09;;;;;;;0.20;0.10;;;22.50;62.60;;;;;;5077448;28;20062;-78
2021/08/02 09:07:38;;;;;;;0.10;0.10;;;22.50;61.90;;;;;;5061861;28;20025;-78
2021/08/02 09:10:10;;;;;;;0.10;0.10;;;22.60;61.90;;;;;;5056568;28;20096;-78
2021/08/02 09:12:36;;;;;;;0.30;0.10;;;22.70;61.00;;;;;;5057467;28;20100;-78
2021/08/02 09:15:06;;;;;;;0.20;0.10;;;22.80;60.00;;;;;;5057400;28;20025;-78
2021/08/02 09:17:33;;;;;;;0.10;0.10;;;23.10;60.10;;;;;;5055972;28;20029;-78
2021/08/02 09:20:16;;;;;;;0.10;0.10;;;23.10;59.50;;;;;;5057104;28;20033;-78
2021/08/02 09:22:42;;;;;;;0.13;0.10;;;23.30;59.60;;;;;;5057126;28;20078;-78
2021/08/02 09:25:17;;;;;;;0.10;0.10;;;23.60;59.50;;;;;;5057104;28;20043;-77
2021/08/02 09:27:43;;;;;;;0.10;0.10;;;23.80;57.30;;;;;;5057086;28;20029;-78
2021/08/02 09:30:25;;;;;;;0.45;0.20;;;24.60;56.50;;;;;;5056929;28;20055;-78
2021/08/02 09:33:03;;;;;;;0.10;0.10;;;25.40;54.80;;;;;;5072291;28;20060;-78
2021/08/02 09:35:40;;;;;;;0.20;0.20;;;26.00;52.20;;;;;;5072158;28;20036;-78
2021/08/02 09:38:13;;;;;;;0.00;0.00;;;27.00;50.70;;;;;;5056731;28;20056;-78
2021/08/02 09:40:42;;;;;;;0.10;0.00;;;27.80;47.50;;;;;;5063141;28;20037;-78
2021/08/02 09:43:17;;;;;;;0.20;0.10;;;28.00;47.10;;;;;;5075414;28;20032;-78
2021/08/02 09:45:48;;;;;;;0.10;0.00;;;27.90;46.90;;;;;;5076738;28;20552;-78
2021/08/02 09:48:15;;;;;;;0.03;0.00;;;27.60;47.70;;;;;;5062574;28;20029;-78
2021/08/02 09:50:45;;;;;;;0.05;0.00;;;27.20;46.70;;;;;;5056594;28;20048;-78
2021/08/02 09:53:16;;;;;;;0.05;0.05;;;26.80;47.60;;;;;;5066938;28;20037;-77
2021/08/02 09:55:44;;;;;;;0.00;0.00;;;26.80;47.70;;;;;;5076534;28;20506;-78
2021/08/02 09:58:20;;;;;;;0.00;0.00;;;26.80;48.40;;;;;;5076482;28;20036;-78
2021/08/02 10:00:47;;;;;;;0.10;0.03;;;27.10;46.30;;;;;;5056346;28;20111;-78
2021/08/02 10:03:16;;;;;;;0.00;0.00;;;26.90;47.40;;;;;;5055946;28;20032;-78
2021/08/02 10:05:42;;;;;;;0.20;0.20;;;26.70;45.60;;;;;;5056353;28;20021;-78
2021/08/02 10:08:08;;;;;;;0.17;0.08;;;26.80;47.60;;;;;;5056263;28;20691;-78
2021/08/02 10:10:38;;;;;;;0.20;0.10;;;26.80;47.20;;;;;;5056202;28;20056;-78
2021/08/02 10:13:04;;;;;;;0.10;0.10;;;26.70;47.00;;;;;;5055935;28;20049;-78
2021/08/02 10:15:31;;;;;;;0.15;0.10;;;26.80;47.50;;;;;;5054677;28;20039;-78
2021/08/02 10:17:59;;;;;;;0.10;0.08;;;26.40;46.80;;;;;;5075722;28;20025;-78
2021/08/02 10:20:28;;;;;;;0.10;0.00;;;26.00;47.90;;;;;;5076038;28;20029;-78
2021/08/02 10:22:55;;;;;;;0.08;0.08;;;25.50;49.80;;;;;;5057974;28;20033;-78
2021/08/02 10:25:50;;;;;;;0.08;0.08;;;25.30;49.60;;;;;;5056087;28;20025;-78
2021/08/02 10:28:18;;;;;;;0.08;0.00;;;25.30;50.00;;;;;;5046960;28;20041;-78
2021/08/02 10:31:07;;;;;;;0.00;0.00;;;25.10;49.00;;;;;;5055833;28;20069;-78
2021/08/02 10:33:34;;;;;;;0.00;0.00;;;25.00;50.50;;;;;;5050243;28;20041;-77
2021/08/02 10:36:19;;;;;;;0.00;0.00;;;25.20;50.50;;;;;;5055877;28;20028;-78
2021/08/02 10:38:47;;;;;;;0.08;0.05;;;25.00;50.60;;;;;;5055599;28;20037;-78
2021/08/02 10:41:27;;;;;;;0.00;0.00;;;24.80;50.10;;;;;;5066690;28;20098;-78
2021/08/02 10:43:53;;;;;;;;;;;24.80;50.90;;;;;;5076054;28;20056;-78
2021/08/02 10:46:25;;;;;;;0.10;0.10;;;24.70;51.20;;;;;;5073839;28;19915;-77
2021/08/02 10:48:54;;;;;;;0.10;0.10;;;24.70;51.80;;;;;;5074560;28;20032;-78
2021/08/02 10:51:21;;;;;;;0.10;0.10;;;24.70;52.70;;;;;;5075591;28;20025;-78
2021/08/02 10:54:00;;;;;;;0.10;0.10;;;24.80;51.10;;;;;;5056506;28;20036;-78
2021/08/02 10:56:31;;;;;;;0.10;0.10;;;24.70;52.30;;;;;;5055563;28;20546;-78
2021/08/02 10:58:59;;;;;;;0.20;0.10;;;24.70;52.40;;;;;;5054060;28;20351;-77
2021/08/02 11:01:26;;;;;;;0.10;0.10;;;24.70;52.20;;;;;;5055676;28;20541;-77
2021/08/02 11:03:57;;;;;;;0.10;0.10;;;24.80;51.50;;;;;;5055210;28;20052;-78
2021/08/02 11:06:23;;;;;;;0.08;0.05;;;24.30;52.80;;;;;;5053878;28;20028;-78
2021/08/02 11:08:56;;;;;;;0.10;0.10;;;24.30;53.50;;;;;;5055422;28;20061;-78
2021/08/02 11:11:25;;;;;;;0.00;0.00;;;24.30;53.80;;;;;;5055396;28;20021;-78
2021/08/02 11:14:03;;;;;;;0.10;0.10;;;24.30;52.60;;;;;;5066659;28;20392;-78
2021/08/02 11:16:29;;;;;;;0.10;0.10;;;24.00;54.90;;;;;;5075431;28;20054;-78
2021/08/02 11:18:54;;;;;;;0.05;0.00;;;24.00;54.10;;;;;;5075468;28;20032;-77
2021/08/02 11:21:25;;;;;;;0.10;0.10;;;23.60;55.10;;;;;;5062064;28;20033;-78
2021/08/02 11:23:52;;;;;;;0.10;0.10;;;23.60;55.00;;;;;;5053871;28;20025;-78
2021/08/02 11:26:20;;;;;;;0.10;0.10;;;23.60;55.40;;;;;;5053973;28;20024;-78
2021/08/02 11:28:49;;;;;;;0.10;0.08;;;23.30;56.20;;;;;;5070817;28;20021;-78
2021/08/02 11:31:16;;;;;;;0.10;0.10;;;23.30;56.50;;;;;;5055179;28;20136;-77
2021/08/02 11:33:44;;;;;;;0.20;0.10;;;23.20;56.10;;;;;;5056761;28;20029;-78
2021/08/02 11:36:18;;;;;;;0.10;0.10;;;23.20;56.50;;;;;;5059210;28;20028;-78
2021/08/02 11:38:46;;;;;;;0.10;0.00;;;23.30;55.90;;;;;;5059297;28;20043;-78
2021/08/02 11:41:26;;;;;;;0.13;0.10;;;23.10;56.30;;;;;;5064936;28;20427;-78
2021/08/02 11:43:53;;;;;;;0.10;0.10;;;23.20;55.70;;;;;;5058944;28;20025;-78
2021/08/02 11:46:19;;;;;;;0.17;0.10;;;23.20;56.20;;;;;;5058931;28;20029;-78
2021/08/02 11:48:45;;;;;;;0.10;0.10;;;23.20;55.30;;;;;;5058774;28;20040;-78
2021/08/02 11:51:18;;;;;;;0.32;0.10;;;23.20;56.00;;;;;;5078878;28;20025;-78
2021/08/02 11:53:43;;;;;;;0.20;0.10;;;23.20;55.10;;;;;;5077614;28;20024;-78
2021/08/02 11:56:09;;;;;;;0.00;0.00;;;23.10;55.80;;;;;;5059631;28;20442;-78
2021/08/02 11:58:38;;;;;;;0.10;0.10;;;22.90;57.10;;;;;;5058662;28;20096;-78
2021/08/02 12:01:04;;;;;;;0.20;0.20;;;22.90;57.00;;;;;;5067561;28;20040;-78
2021/08/02 12:03:29;;;;;;;0.10;0.10;;;23.10;56.80;;;;;;5065859;28;20100;-78
2021/08/02 12:06:08;;;;;;;0.20;0.10;;;23.30;55.50;;;;;;5058647;28;20029;-78
2021/08/02 12:08:35;;;;;;;0.10;0.10;;;23.50;53.90;;;;;;5058531;28;20025;-78
2021/08/02 12:11:04;;;;;;;0.10;0.10;;;23.70;54.30;;;;;;5064571;28;20088;-78
2021/08/02 12:13:41;;;;;;;0.10;0.10;;;23.70;53.70;;;;;;5078426;28;20024;-78
2021/08/02 12:16:09;;;;;;;0.10;0.10;;;23.80;53.60;;;;;;5078564;28;20041;-78
2021/08/02 12:18:35;;;;;;;0.10;0.10;;;24.10;52.90;;;;;;5070153;28;20025;-78
2021/08/02 12:21:12;;;;;;;0.10;0.10;;;24.40;52.80;;;;;;5058363;28;20025;-78
2021/08/02 12:23:39;;;;;;;0.25;0.10;;;24.40;53.10;;;;;;5062384;28;20021;-78
2021/08/02 12:26:17;;;;;;;0.10;0.10;;;24.40;51.20;;;;;;5077193;28;20108;-77
2021/08/02 12:28:43;;;;;;;0.00;0.00;;;24.30;51.80;;;;;;5075013;28;20032;-77
2021/08/02 12:31:18;;;;;;;0.10;0.10;;;24.40;51.70;;;;;;5056796;28;20495;-78
2021/08/02 12:33:49;;;;;;;0.00;0.00;;;24.70;51.00;;;;;;5057860;28;20499;-78
2021/08/02 12:36:16;;;;;;;0.00;0.00;;;24.80;53.10;;;;;;5058459;28;20542;-78
2021/08/02 12:38:43;;;;;;;0.10;0.10;;;24.70;51.80;;;;;;5057774;28;20067;-78
2021/08/02 12:41:09;;;;;;;0.00;0.00;;;24.90;49.90;;;;;;5068323;28;20494;-78
2021/08/02 12:43:34;;;;;;;0.05;0.00;;;25.30;49.90;;;;;;5078017;28;20048;-78
2021/08/02 12:46:00;;;;;;;0.10;0.10;;;25.20;48.10;;;;;;5063739;28;20407;-78
2021/08/02 12:48:26;;;;;;;0.10;0.10;;;25.30;48.20;;;;;;5057768;28;20021;-78
2021/08/02 12:50:51;;;;;;;0.10;0.10;;;25.50;48.00;;;;;;5056632;28;20147;-78
2021/08/02 12:53:17;;;;;;;0.10;0.10;;;25.90;48.80;;;;;;5057941;28;20478;-78
2021/08/02 12:55:43;;;;;;;0.10;0.10;;;26.00;46.10;;;;;;5057709;28;20033;-78